createdAt,value
2018-09-27T00:00:37.821Z,9.00
2018-09-27T00:01:37.960Z,9.04
2018-09-27T00:02:38.499Z,9.19
2018-09-27T00:03:38.296Z,9.18
2018-09-27T00:04:38.463Z,9.28
2018-09-27T00:05:38.617Z,9.31
2018-09-27T00:06:38.775Z,9.39
2018-09-27T00:07:38.935Z,9.21
2018-09-27T00:08:39.101Z,8.95
2018-09-27T00:09:39.254Z,8.95
2018-09-27T00:10:39.425Z,8.63
2018-09-27T00:11:39.592Z,8.69
2018-09-27T00:12:39.751Z,8.71
2018-09-27T00:13:39.913Z,8.84
2018-09-27T00:16:39.469Z,8.89
2018-09-27T00:17:39.631Z,8.85
2018-09-27T00:18:39.797Z,8.76
2018-09-27T00:19:40.039Z,8.89
2018-09-27T00:20:40.142Z,8.88
2018-09-27T00:21:40.300Z,8.92
2018-09-27T00:22:47.651Z,8.92
2018-09-27T00:23:40.554Z,8.88
2018-09-27T00:24:40.735Z,9.06
2018-09-27T00:25:40.916Z,9.03
2018-09-27T00:26:41.069Z,9.08
2018-09-27T00:27:41.234Z,9.14
2018-09-27T00:28:41.400Z,9.21
2018-09-27T00:29:41.562Z,9.23
2018-09-27T00:30:41.708Z,9.28
2018-09-27T00:31:41.866Z,9.28
2018-09-27T00:32:42.030Z,9.36
2018-09-27T00:33:42.192Z,9.25
2018-09-27T00:34:42.382Z,9.31
2018-09-27T00:35:42.535Z,9.22
2018-09-27T00:36:42.709Z,9.26
2018-09-27T00:39:25.018Z,9.39
2018-09-27T00:40:25.056Z,9.40
2018-09-27T00:41:25.229Z,9.39
2018-09-27T00:42:32.850Z,9.32
2018-09-27T00:43:25.507Z,9.32
2018-09-27T00:44:25.666Z,9.26
2018-09-27T00:46:57.438Z,9.29
2018-09-27T00:47:57.591Z,9.26
2018-09-27T00:48:57.767Z,9.26
2018-09-27T00:49:57.935Z,9.25
2018-09-27T00:50:58.094Z,9.26
2018-09-27T00:51:58.248Z,9.19
2018-09-27T00:52:58.420Z,9.23
2018-09-27T00:53:58.581Z,9.21
2018-09-27T00:54:58.752Z,9.22
2018-09-27T00:55:58.902Z,9.23
2018-09-27T00:56:59.090Z,9.25
2018-09-27T00:57:59.251Z,9.19
2018-09-27T00:58:59.415Z,9.19
2018-09-27T00:59:59.574Z,9.22
2018-09-27T01:00:59.737Z,9.19
2018-09-27T01:03:42.289Z,9.25
2018-09-27T01:04:42.449Z,9.22
2018-09-27T01:05:42.641Z,9.26
2018-09-27T01:06:42.827Z,9.26
2018-09-27T01:07:42.959Z,9.23
2018-09-27T01:08:43.119Z,9.19
2018-09-27T01:09:43.272Z,9.13
2018-09-27T01:10:43.448Z,9.08
2018-09-27T01:11:43.621Z,9.10
2018-09-27T01:12:43.789Z,9.06
2018-09-27T01:13:43.960Z,9.13
2018-09-27T01:14:44.174Z,9.11
2018-09-27T01:15:44.218Z,9.00
2018-09-27T01:16:44.379Z,8.71
2018-09-27T01:19:16.703Z,8.46
2018-09-27T01:20:16.757Z,8.20
2018-09-27T01:21:16.931Z,8.23
2018-09-27T01:22:24.537Z,8.08
2018-09-27T01:23:17.191Z,7.94
2018-09-27T01:24:17.352Z,8.05
2018-09-27T01:25:17.510Z,8.06
2018-09-27T01:26:17.669Z,8.23
2018-09-27T01:27:17.840Z,8.27
2018-09-27T01:28:17.998Z,8.30
2018-09-27T01:29:18.188Z,8.38
2018-09-27T01:30:18.349Z,8.41
2018-09-27T01:31:18.532Z,8.44
2018-09-27T01:32:18.705Z,8.49
2018-09-27T01:33:18.862Z,8.66
2018-09-27T01:34:19.042Z,8.61
2018-09-27T01:35:19.210Z,8.74
2018-09-27T01:36:19.371Z,8.73
2018-09-27T01:39:01.636Z,8.95
2018-09-27T01:40:01.788Z,8.85
2018-09-27T01:41:09.128Z,8.89
2018-09-27T01:42:02.168Z,8.94
2018-09-27T01:43:02.356Z,9.00
2018-09-27T01:45:34.134Z,8.94
2018-09-27T01:46:34.291Z,8.92
2018-09-27T01:47:34.478Z,8.89
2018-09-27T01:48:34.699Z,8.94
2018-09-27T01:49:34.812Z,8.94
2018-09-27T01:50:34.967Z,8.87
2018-09-27T01:51:35.130Z,8.82
2018-09-27T01:52:35.292Z,8.79
2018-09-27T01:53:35.459Z,8.84
2018-09-27T01:54:35.621Z,8.85
2018-09-27T01:55:35.793Z,8.88
2018-09-27T01:56:36.068Z,8.82
2018-09-27T01:57:36.069Z,8.82
2018-09-27T01:58:36.231Z,8.79
2018-09-27T01:59:36.397Z,8.79
2018-09-27T02:00:44.241Z,8.89
2018-09-27T02:01:36.769Z,8.87
2018-09-27T02:02:36.932Z,8.89
2018-09-27T02:03:37.094Z,8.88
2018-09-27T02:04:37.256Z,8.95
2018-09-27T02:05:37.413Z,8.88
2018-09-27T02:06:45.065Z,8.88
2018-09-27T02:07:37.720Z,8.89
2018-09-27T02:08:37.887Z,8.71
2018-09-27T02:09:38.045Z,8.89
2018-09-27T02:10:38.210Z,8.85
2018-09-27T02:11:38.373Z,8.89
2018-09-27T02:12:38.537Z,8.82
2018-09-27T02:13:38.690Z,8.78
2018-09-27T02:14:38.853Z,8.78
2018-09-27T02:15:39.021Z,8.81
2018-09-27T02:16:40.136Z,8.73
2018-09-27T02:17:39.334Z,8.78
2018-09-27T02:18:39.498Z,8.70
2018-09-27T02:19:39.668Z,8.70
2018-09-27T02:20:39.823Z,8.64
2018-09-27T02:23:12.068Z,8.81
2018-09-27T02:24:12.233Z,8.71
2018-09-27T02:25:13.107Z,8.74
2018-09-27T02:26:12.513Z,8.66
2018-09-27T02:27:12.800Z,8.79
2018-09-27T02:28:12.846Z,8.85
2018-09-27T02:29:12.974Z,8.70
2018-09-27T02:30:13.146Z,8.81
2018-09-27T02:31:13.306Z,8.84
2018-09-27T02:32:13.461Z,8.82
2018-09-27T02:33:13.631Z,8.73
2018-09-27T02:34:13.794Z,8.70
2018-09-27T02:35:13.956Z,8.71
2018-09-27T02:36:14.118Z,8.61
2018-09-27T02:37:14.283Z,8.45
2018-09-27T02:39:56.530Z,8.42
2018-09-27T02:40:56.699Z,8.49
2018-09-27T02:41:56.867Z,8.52
2018-09-27T02:42:57.016Z,8.46
2018-09-27T02:43:57.199Z,8.48
2018-09-27T02:44:57.373Z,8.55
2018-09-27T02:46:05.468Z,8.56
2018-09-27T02:46:57.617Z,8.46
2018-09-27T02:47:57.782Z,8.48
2018-09-27T02:48:58.009Z,8.41
2018-09-27T02:49:58.101Z,8.46
2018-09-27T02:50:58.270Z,8.41
2018-09-27T02:51:58.425Z,8.44
2018-09-27T02:52:58.577Z,8.33
2018-09-27T02:54:01.595Z,8.13
2018-09-27T02:54:58.876Z,8.20
2018-09-27T02:55:59.039Z,8.16
2018-09-27T02:56:59.207Z,7.97
2018-09-27T02:57:59.392Z,7.75
2018-09-27T02:58:59.559Z,7.77
2018-09-27T02:59:59.721Z,7.63
2018-09-27T03:00:59.882Z,7.53
2018-09-27T03:03:42.446Z,7.39
2018-09-27T03:04:42.608Z,7.47
2018-09-27T03:05:42.769Z,7.51
2018-09-27T03:06:42.931Z,7.58
2018-09-27T03:07:43.098Z,7.69
2018-09-27T03:08:43.257Z,7.73
2018-09-27T03:09:43.409Z,7.77
2018-09-27T03:10:43.572Z,7.69
2018-09-27T03:11:44.672Z,7.91
2018-09-27T03:12:43.837Z,7.88
2018-09-27T03:13:44.027Z,8.03
2018-09-27T03:14:44.167Z,8.01
2018-09-27T03:15:44.335Z,8.03
2018-09-27T03:16:44.481Z,8.08
2018-09-27T03:17:44.659Z,8.03
2018-09-27T03:20:17.209Z,7.93
2018-09-27T03:21:17.378Z,7.97
2018-09-27T03:22:17.539Z,7.95
2018-09-27T03:23:17.715Z,7.97
2018-09-27T03:24:17.871Z,8.08
2018-09-27T03:25:18.017Z,7.94
2018-09-27T03:26:18.191Z,7.79
2018-09-27T03:27:18.358Z,7.76
2018-09-27T03:28:18.518Z,7.69
2018-09-27T03:29:18.684Z,7.73
2018-09-27T03:30:18.861Z,7.76
2018-09-27T03:31:19.055Z,7.83
2018-09-27T03:32:19.208Z,7.73
2018-09-27T03:33:19.371Z,7.82
2018-09-27T03:34:19.536Z,7.79
2018-09-27T03:37:02.077Z,7.98
2018-09-27T03:38:02.241Z,8.03
2018-09-27T03:39:02.400Z,8.06
2018-09-27T03:40:02.572Z,8.08
2018-09-27T03:41:02.725Z,8.08
2018-09-27T03:42:02.877Z,8.09
2018-09-27T03:43:03.047Z,8.08
2018-09-27T03:45:34.815Z,8.12
2018-09-27T03:46:34.964Z,8.13
2018-09-27T03:47:35.131Z,8.12
2018-09-27T03:48:42.945Z,8.05
2018-09-27T03:49:35.478Z,8.16
2018-09-27T03:50:35.661Z,7.91
2018-09-27T03:51:35.836Z,7.80
2018-09-27T03:52:35.985Z,7.90
2018-09-27T03:53:36.141Z,7.82
2018-09-27T03:54:36.303Z,7.79
2018-09-27T03:55:36.474Z,7.79
2018-09-27T03:56:36.635Z,7.76
2018-09-27T03:57:36.786Z,7.75
2018-09-27T03:58:36.956Z,7.83
2018-09-27T04:01:20.735Z,8.05
2018-09-27T04:02:20.396Z,8.06
2018-09-27T04:03:20.657Z,8.06
2018-09-27T04:04:20.726Z,8.09
2018-09-27T04:05:20.889Z,8.01
2018-09-27T04:06:29.027Z,8.12
2018-09-27T04:07:21.182Z,8.15
2018-09-27T04:08:21.347Z,8.16
2018-09-27T04:09:22.253Z,8.10
2018-09-27T04:10:21.663Z,8.09
2018-09-27T04:11:21.815Z,8.12
2018-09-27T04:12:21.987Z,8.12
2018-09-27T04:13:22.136Z,8.10
2018-09-27T04:14:22.298Z,8.09
2018-09-27T04:15:22.455Z,8.05
2018-09-27T04:16:22.616Z,8.10
2018-09-27T04:19:04.875Z,8.01
2018-09-27T04:20:05.045Z,8.06
2018-09-27T04:21:05.197Z,8.03
2018-09-27T04:22:05.369Z,7.94
2018-09-27T04:23:05.529Z,7.95
2018-09-27T04:24:05.703Z,8.05
2018-09-27T04:25:05.854Z,8.05
2018-09-27T04:26:06.018Z,7.98
2018-09-27T04:27:06.179Z,8.03
2018-09-27T04:28:06.338Z,8.03
2018-09-27T04:29:06.561Z,8.05
2018-09-27T04:30:06.728Z,8.00
2018-09-27T04:31:06.892Z,8.00
2018-09-27T04:32:07.047Z,8.09
2018-09-27T04:33:07.229Z,8.09
2018-09-27T04:35:49.495Z,8.12
2018-09-27T04:36:49.659Z,8.10
2018-09-27T04:37:49.826Z,7.95
2018-09-27T04:38:49.980Z,7.79
2018-09-27T04:39:50.154Z,7.83
2018-09-27T04:40:50.458Z,7.72
2018-09-27T04:41:50.403Z,7.66
2018-09-27T04:42:50.564Z,7.72
2018-09-27T04:43:50.726Z,7.67
2018-09-27T04:44:50.897Z,7.82
2018-09-27T04:45:51.144Z,7.87
2018-09-27T04:46:51.241Z,7.94
2018-09-27T04:47:51.371Z,7.88
2018-09-27T04:48:51.619Z,7.88
2018-09-27T04:49:51.696Z,7.88
2018-09-27T04:52:41.176Z,7.91
2018-09-27T04:53:34.230Z,7.91
2018-09-27T04:54:34.462Z,7.98
2018-09-27T04:55:34.541Z,7.88
2018-09-27T04:56:42.669Z,8.00
2018-09-27T04:57:34.837Z,8.03
2018-09-27T04:58:34.986Z,7.98
2018-09-27T04:59:35.148Z,7.95
2018-09-27T05:00:35.339Z,7.94
2018-09-27T05:01:35.500Z,7.87
2018-09-27T05:02:35.659Z,7.83
2018-09-27T05:03:35.833Z,7.85
2018-09-27T05:04:35.997Z,7.82
2018-09-27T05:05:36.232Z,7.76
2018-09-27T05:06:36.959Z,7.69
2018-09-27T05:07:36.487Z,7.57
2018-09-27T05:08:36.645Z,7.58
2018-09-27T05:09:36.861Z,7.47
2018-09-27T05:10:36.979Z,7.56
2018-09-27T05:13:09.532Z,7.23
2018-09-27T05:14:09.691Z,7.35
2018-09-27T05:15:09.867Z,7.32
2018-09-27T05:16:10.031Z,7.33
2018-09-27T05:17:10.193Z,7.48
2018-09-27T05:18:10.355Z,7.53
2018-09-27T05:19:10.517Z,7.50
2018-09-27T05:20:10.690Z,7.56
2018-09-27T05:21:10.912Z,7.63
2018-09-27T05:22:11.061Z,7.60
2018-09-27T05:23:11.222Z,7.54
2018-09-27T05:24:11.385Z,7.63
2018-09-27T05:25:11.551Z,7.73
2018-09-27T05:26:11.710Z,7.76
2018-09-27T05:27:11.961Z,7.77
2018-09-27T05:29:44.157Z,7.83
2018-09-27T05:30:44.317Z,7.80
2018-09-27T05:31:44.523Z,7.82
2018-09-27T05:32:44.687Z,7.90
2018-09-27T05:33:44.847Z,7.95
2018-09-27T05:34:45.006Z,8.03
2018-09-27T05:35:45.171Z,7.98
2018-09-27T05:36:45.335Z,8.06
2018-09-27T05:37:45.521Z,8.08
2018-09-27T05:38:45.672Z,8.10
2018-09-27T05:39:45.835Z,8.03
2018-09-27T05:40:46.001Z,8.12
2018-09-27T05:41:46.201Z,7.85
2018-09-27T05:42:46.366Z,7.79
2018-09-27T05:43:46.554Z,7.80
2018-09-27T05:46:28.764Z,7.07
2018-09-27T05:47:28.928Z,7.06
2018-09-27T05:48:29.093Z,7.05
2018-09-27T05:49:29.252Z,7.07
2018-09-27T05:50:29.416Z,7.07
2018-09-27T05:51:29.595Z,7.07
2018-09-27T05:52:37.154Z,6.93
2018-09-27T05:53:29.930Z,6.96
2018-09-27T05:54:30.095Z,6.82
2018-09-27T05:55:30.277Z,6.77
2018-09-27T05:56:30.450Z,6.79
2018-09-27T05:57:31.392Z,6.75
2018-09-27T05:58:30.748Z,6.92
2018-09-27T05:59:38.869Z,6.78
2018-09-27T06:00:31.026Z,6.97
2018-09-27T06:01:31.207Z,6.92
2018-09-27T06:02:31.340Z,7.06
2018-09-27T06:03:31.518Z,7.23
2018-09-27T06:04:31.667Z,7.14
2018-09-27T06:05:31.847Z,7.14
2018-09-27T06:06:32.145Z,6.95
2018-09-27T06:07:32.310Z,7.06
2018-09-27T06:08:32.418Z,7.23
2018-09-27T06:09:32.627Z,7.21
2018-09-27T06:12:15.267Z,7.48
2018-09-27T06:13:14.914Z,7.39
2018-09-27T06:14:15.079Z,7.45
2018-09-27T06:15:23.217Z,7.54
2018-09-27T06:16:15.449Z,7.60
2018-09-27T06:17:15.603Z,7.57
2018-09-27T06:18:15.772Z,7.69
2018-09-27T06:19:15.962Z,7.79
2018-09-27T06:20:16.103Z,7.66
2018-09-27T06:21:16.270Z,7.76
2018-09-27T06:22:24.408Z,7.75
2018-09-27T06:23:16.561Z,7.75
2018-09-27T06:24:16.730Z,7.87
2018-09-27T06:25:16.890Z,7.60
2018-09-27T06:26:17.891Z,7.66
2018-09-27T06:27:17.179Z,7.76
2018-09-27T06:28:17.342Z,7.76
2018-09-27T06:29:17.508Z,7.77
2018-09-27T06:30:17.677Z,7.85
2018-09-27T06:31:17.856Z,7.88
2018-09-27T06:32:18.817Z,7.82
2018-09-27T06:33:18.142Z,7.80
2018-09-27T06:34:18.305Z,7.57
2018-09-27T06:35:18.472Z,7.50
2018-09-27T06:36:18.626Z,7.47
2018-09-27T06:37:18.785Z,7.43
2018-09-27T06:39:51.507Z,7.43
2018-09-27T06:40:51.702Z,7.56
2018-09-27T06:41:51.829Z,7.54
2018-09-27T06:42:51.987Z,7.51
2018-09-27T06:43:52.186Z,7.47
2018-09-27T06:44:52.377Z,7.45
2018-09-27T06:45:52.566Z,7.67
2018-09-27T06:46:52.722Z,7.75
2018-09-27T06:47:54.569Z,7.87
2018-09-27T06:48:53.149Z,7.90
2018-09-27T06:49:53.142Z,8.09
2018-09-27T06:50:55.067Z,8.24
2018-09-27T06:51:53.481Z,8.27
2018-09-27T06:52:53.637Z,8.51
2018-09-27T06:53:53.802Z,8.66
2018-09-27T06:56:26.408Z,8.82
2018-09-27T06:57:26.520Z,8.99
2018-09-27T06:58:26.684Z,9.04
2018-09-27T06:59:26.848Z,9.02
2018-09-27T07:00:27.008Z,8.97
2018-09-27T07:01:27.211Z,8.87
2018-09-27T07:02:27.325Z,8.84
2018-09-27T07:03:27.484Z,8.92
2018-09-27T07:04:27.644Z,9.02
2018-09-27T07:05:27.819Z,8.95
2018-09-27T07:06:27.961Z,8.74
2018-09-27T07:07:28.122Z,8.94
2018-09-27T07:08:28.375Z,8.88
2018-09-27T07:09:28.457Z,8.92
2018-09-27T07:10:28.616Z,8.94
2018-09-27T07:13:00.918Z,9.32
2018-09-27T07:15:32.675Z,9.58
2018-09-27T07:16:32.830Z,9.68
2018-09-27T07:17:33.005Z,9.59
2018-09-27T07:18:33.176Z,9.66
2018-09-27T07:19:33.334Z,9.76
2018-09-27T07:20:41.189Z,9.77
2018-09-27T07:21:33.713Z,9.97
2018-09-27T07:22:33.856Z,9.87
2018-09-27T07:23:34.029Z,9.64
2018-09-27T07:24:34.203Z,9.77
2018-09-27T07:25:34.356Z,9.82
2018-09-27T07:26:34.556Z,10.09
2018-09-27T07:27:34.680Z,10.34
2018-09-27T07:28:34.833Z,10.54
2018-09-27T07:29:34.996Z,10.69
2018-09-27T07:30:35.202Z,11.15
2018-09-27T07:31:35.365Z,11.57
2018-09-27T07:32:35.606Z,12.03
2018-09-27T07:33:35.726Z,12.10
2018-09-27T07:34:43.867Z,12.32
2018-09-27T07:35:36.008Z,12.32
2018-09-27T07:36:36.195Z,12.64
2018-09-27T07:37:36.343Z,13.11
2018-09-27T07:38:36.568Z,13.44
2018-09-27T07:39:36.662Z,13.71
2018-09-27T07:40:36.858Z,13.86
2018-09-27T07:41:37.005Z,13.72
2018-09-27T07:42:37.194Z,13.74
2018-09-27T07:43:37.327Z,13.71
2018-09-27T07:44:37.533Z,13.75
2018-09-27T07:47:10.354Z,13.38
2018-09-27T07:48:09.894Z,13.74
2018-09-27T07:49:10.068Z,14.37
2018-09-27T07:50:10.235Z,15.06
2018-09-27T07:51:10.418Z,15.65
2018-09-27T07:52:10.567Z,16.35
2018-09-27T07:53:10.738Z,17.01
2018-09-27T07:54:10.943Z,17.34
2018-09-27T07:55:11.072Z,17.48
2018-09-27T07:56:11.246Z,17.68
2018-09-27T07:58:44.241Z,17.02
2018-09-27T07:59:43.659Z,16.79
2018-09-27T08:00:43.850Z,16.66
2018-09-27T08:01:44.000Z,16.21
2018-09-27T08:02:44.248Z,16.20
2018-09-27T08:03:44.337Z,16.05
2018-09-27T08:04:44.507Z,15.25
2018-09-27T08:05:46.562Z,14.91
2018-09-27T08:06:44.860Z,14.65
2018-09-27T08:07:45.994Z,14.66
2018-09-27T08:08:45.263Z,14.69
2018-09-27T08:09:45.364Z,14.92
2018-09-27T08:10:45.531Z,14.79
2018-09-27T08:11:45.765Z,14.70
2018-09-27T08:12:45.904Z,14.84
2018-09-27T08:15:18.378Z,14.89
2018-09-27T08:16:18.667Z,14.50
2018-09-27T08:17:18.752Z,14.47
2018-09-27T08:18:18.884Z,14.44
2018-09-27T08:19:19.056Z,14.43
2018-09-27T08:20:19.258Z,14.58
2018-09-27T08:21:19.561Z,14.54
2018-09-27T08:22:19.568Z,14.62
2018-09-27T08:23:19.737Z,14.66
2018-09-27T08:24:19.905Z,14.29
2018-09-27T08:25:20.074Z,14.47
2018-09-27T08:26:20.251Z,14.26
2018-09-27T08:27:20.415Z,14.29
2018-09-27T08:28:20.580Z,14.32
2018-09-27T08:29:20.759Z,14.45
2018-09-27T08:33:11.338Z,15.10
2018-09-27T08:34:11.510Z,14.89
2018-09-27T08:35:11.677Z,14.97
2018-09-27T08:36:11.847Z,15.10
2018-09-27T08:37:12.016Z,15.27
2018-09-27T08:38:12.185Z,15.22
2018-09-27T08:39:12.360Z,15.33
2018-09-27T08:40:12.526Z,15.29
2018-09-27T08:41:12.688Z,15.55
2018-09-27T08:42:14.525Z,15.58
2018-09-27T08:43:13.006Z,15.33
2018-09-27T08:44:13.172Z,15.37
2018-09-27T08:45:13.641Z,15.39
2018-09-27T08:46:13.514Z,15.43
2018-09-27T08:47:13.701Z,15.58
2018-09-27T08:49:55.960Z,15.75
2018-09-27T08:50:56.126Z,15.98
2018-09-27T08:51:56.288Z,16.20
2018-09-27T08:52:56.468Z,16.29
2018-09-27T08:53:56.641Z,16.54
2018-09-27T08:54:56.904Z,16.60
2018-09-27T08:55:57.116Z,16.58
2018-09-27T08:56:57.234Z,16.69
2018-09-27T08:57:57.415Z,16.72
2018-09-27T08:58:57.584Z,16.89
2018-09-27T08:59:57.776Z,16.97
2018-09-27T09:00:57.923Z,17.05
2018-09-27T09:01:58.091Z,17.23
2018-09-27T09:02:58.265Z,17.44
2018-09-27T09:04:06.077Z,17.54
2018-09-27T09:04:58.609Z,17.67
2018-09-27T09:05:58.751Z,17.80
2018-09-27T09:06:58.930Z,17.74
2018-09-27T09:07:59.079Z,17.67
2018-09-27T09:08:59.354Z,17.74
2018-09-27T09:09:59.354Z,17.86
2018-09-27T09:10:59.640Z,18.01
2018-09-27T09:11:59.648Z,18.08
2018-09-27T09:12:59.797Z,18.29
2018-09-27T09:13:59.964Z,18.28
2018-09-27T09:16:42.225Z,18.26
2018-09-27T09:17:42.409Z,18.25
2018-09-27T09:18:42.572Z,18.23
2018-09-27T09:19:42.770Z,18.34
2018-09-27T09:20:42.918Z,18.40
2018-09-27T09:21:43.124Z,18.49
2018-09-27T09:22:43.249Z,18.47
2018-09-27T09:23:43.419Z,18.33
2018-09-27T09:24:43.662Z,18.40
2018-09-27T09:25:43.776Z,18.19
2018-09-27T09:26:43.936Z,18.10
2018-09-27T09:27:44.218Z,18.03
2018-09-27T09:28:44.254Z,18.11
2018-09-27T09:29:52.419Z,18.13
2018-09-27T09:30:44.536Z,18.15
2018-09-27T09:31:44.726Z,18.15
2018-09-27T09:32:44.892Z,18.08
2018-09-27T09:33:45.165Z,18.34
2018-09-27T09:34:45.808Z,18.50
2018-09-27T09:35:45.357Z,18.47
2018-09-27T09:36:45.521Z,18.65
2018-09-27T09:37:45.691Z,18.55
2018-09-27T09:38:45.858Z,18.60
2018-09-27T09:39:46.747Z,18.62
2018-09-27T09:40:46.176Z,18.77
2018-09-27T09:41:46.346Z,18.93
2018-09-27T09:42:46.513Z,19.02
2018-09-27T09:43:46.684Z,19.07
2018-09-27T09:44:46.870Z,19.12
2018-09-27T09:47:19.127Z,18.96
2018-09-27T09:48:19.297Z,19.09
2018-09-27T09:49:19.462Z,19.24
2018-09-27T09:50:19.629Z,19.45
2018-09-27T09:51:19.783Z,19.62
2018-09-27T09:52:19.973Z,19.76
2018-09-27T09:53:20.139Z,19.88
2018-09-27T09:54:20.306Z,20.00
2018-09-27T09:55:20.472Z,20.06
2018-09-27T09:56:20.633Z,20.24
2018-09-27T09:57:20.802Z,20.26
2018-09-27T09:58:20.974Z,20.28
2018-09-27T09:59:21.179Z,20.47
2018-09-27T10:00:22.196Z,20.56
2018-09-27T10:01:29.151Z,20.66
2018-09-27T10:02:21.700Z,20.93
2018-09-27T10:03:21.858Z,21.18
2018-09-27T10:04:22.021Z,21.43
2018-09-27T10:05:22.193Z,21.61
2018-09-27T10:06:22.366Z,21.82
2018-09-27T10:07:22.548Z,22.04
2018-09-27T10:08:22.721Z,22.18
2018-09-27T10:09:22.896Z,22.39
2018-09-27T10:10:23.069Z,22.51
2018-09-27T10:11:23.242Z,22.62
2018-09-27T10:14:07.153Z,22.76
2018-09-27T10:15:07.332Z,22.87
2018-09-27T10:16:07.508Z,22.83
2018-09-27T10:17:07.669Z,22.73
2018-09-27T10:18:07.828Z,22.57
2018-09-27T10:19:08.003Z,22.60
2018-09-27T10:20:08.166Z,22.60
2018-09-27T10:21:08.336Z,22.44
2018-09-27T10:22:08.563Z,22.38
2018-09-27T10:23:08.685Z,22.51
2018-09-27T10:24:08.840Z,22.38
2018-09-27T10:25:09.004Z,22.41
2018-09-27T10:26:17.141Z,22.41
2018-09-27T10:27:09.311Z,22.51
2018-09-27T10:28:09.465Z,22.55
2018-09-27T10:29:17.626Z,22.75
2018-09-27T10:30:09.768Z,22.91
2018-09-27T10:31:10.044Z,22.98
2018-09-27T10:32:10.126Z,23.00
2018-09-27T10:33:10.265Z,22.94
2018-09-27T10:35:42.079Z,22.93
2018-09-27T10:36:42.120Z,22.91
2018-09-27T10:37:42.303Z,23.02
2018-09-27T10:38:42.547Z,22.99
2018-09-27T10:39:42.570Z,22.98
2018-09-27T10:40:42.792Z,22.98
2018-09-27T10:41:43.658Z,23.02
2018-09-27T10:42:43.110Z,23.09
2018-09-27T10:43:43.328Z,23.10
2018-09-27T10:44:43.682Z,23.08
2018-09-27T10:45:43.683Z,23.03
2018-09-27T10:46:51.767Z,23.10
2018-09-27T10:47:43.928Z,23.10
2018-09-27T10:48:44.113Z,23.20
2018-09-27T10:49:44.275Z,23.27
2018-09-27T10:50:44.449Z,23.27
2018-09-27T10:51:44.616Z,23.21
2018-09-27T10:52:44.785Z,23.28
2018-09-27T10:53:44.944Z,23.34
2018-09-27T10:54:45.138Z,23.23
2018-09-27T10:55:45.302Z,23.34
2018-09-27T10:56:45.475Z,22.91
2018-09-27T10:57:45.643Z,22.87
2018-09-27T10:58:45.817Z,22.66
2018-09-27T10:59:46.062Z,22.59
2018-09-27T11:00:46.165Z,22.41
2018-09-27T11:03:19.497Z,22.18
2018-09-27T11:04:18.537Z,22.20
2018-09-27T11:05:20.469Z,22.15
2018-09-27T11:06:20.508Z,22.25
2018-09-27T11:07:19.028Z,22.36
2018-09-27T11:08:19.187Z,22.41
2018-09-27T11:09:19.688Z,22.63
2018-09-27T11:10:19.514Z,22.62
2018-09-27T11:13:19.894Z,22.85
2018-09-27T11:14:19.889Z,22.81
2018-09-27T11:15:20.028Z,22.87
2018-09-27T11:16:20.523Z,22.91
2018-09-27T11:17:20.491Z,22.85
2018-09-27T11:18:20.509Z,22.80
2018-09-27T11:19:20.717Z,22.68
2018-09-27T11:21:21.072Z,22.62
2018-09-27T11:22:21.103Z,22.68
2018-09-27T11:23:29.275Z,22.73
2018-09-27T11:25:24.757Z,22.57
2018-09-27T11:26:22.278Z,22.50
2018-09-27T11:28:54.099Z,22.45
2018-09-27T11:29:54.264Z,22.41
2018-09-27T11:30:54.433Z,22.44
2018-09-27T11:31:54.604Z,22.39
2018-09-27T11:32:54.845Z,22.39
2018-09-27T11:33:54.946Z,22.48
2018-09-27T11:34:55.109Z,22.57
2018-09-27T11:35:55.276Z,22.59
2018-09-27T11:36:55.445Z,22.65
2018-09-27T11:37:55.624Z,22.80
2018-09-27T11:38:55.774Z,22.70
2018-09-27T11:39:55.935Z,22.84
2018-09-27T11:40:56.128Z,22.84
2018-09-27T11:41:56.296Z,22.69
2018-09-27T11:42:56.506Z,22.66
2018-09-27T11:45:28.736Z,22.76
2018-09-27T11:46:28.891Z,22.78
2018-09-27T11:47:29.060Z,22.91
2018-09-27T11:48:29.234Z,22.96
2018-09-27T11:49:29.462Z,22.90
2018-09-27T11:50:29.575Z,22.88
2018-09-27T11:51:29.746Z,22.81
2018-09-27T11:52:29.914Z,22.75
2018-09-27T11:53:30.077Z,22.65
2018-09-27T11:54:30.250Z,22.69
2018-09-27T11:55:30.411Z,22.69
2018-09-27T11:56:30.589Z,22.78
2018-09-27T11:57:30.749Z,22.70
2018-09-27T11:58:30.917Z,22.88
2018-09-27T11:59:31.128Z,22.84
2018-09-27T12:02:13.394Z,22.94
2018-09-27T12:03:13.572Z,22.94
2018-09-27T12:04:13.747Z,22.99
2018-09-27T12:05:22.962Z,22.91
2018-09-27T12:06:14.201Z,22.85
2018-09-27T12:07:14.234Z,22.75
2018-09-27T12:08:14.415Z,22.88
2018-09-27T12:09:14.585Z,22.85
2018-09-27T12:10:14.844Z,22.81
2018-09-27T12:11:14.913Z,22.81
2018-09-27T12:12:15.142Z,22.96
2018-09-27T12:13:23.049Z,22.93
2018-09-27T12:14:16.439Z,23.00
2018-09-27T12:15:15.736Z,22.93
2018-09-27T12:16:15.912Z,22.99
2018-09-27T12:17:16.113Z,23.05
2018-09-27T12:18:16.405Z,23.02
2018-09-27T12:19:16.430Z,23.03
2018-09-27T12:20:16.624Z,23.00
2018-09-27T12:21:16.828Z,23.13
2018-09-27T12:22:17.042Z,23.06
2018-09-27T12:23:17.127Z,23.08
2018-09-27T12:24:17.287Z,23.06
2018-09-27T12:25:25.521Z,23.09
2018-09-27T12:26:17.628Z,23.09
2018-09-27T12:27:17.798Z,23.13
2018-09-27T12:28:17.975Z,23.15
2018-09-27T12:29:18.179Z,23.09
2018-09-27T12:30:18.320Z,23.32
2018-09-27T12:31:18.493Z,23.12
2018-09-27T12:32:18.661Z,23.27
2018-09-27T12:33:18.824Z,23.09
2018-09-27T12:34:19.027Z,23.24
2018-09-27T12:35:19.148Z,23.21
2018-09-27T12:36:27.251Z,23.32
2018-09-27T12:38:19.750Z,23.44
2018-09-27T12:39:19.993Z,23.18
2018-09-27T12:40:20.173Z,23.28
2018-09-27T12:41:20.249Z,23.31
2018-09-27T12:42:20.462Z,23.23
2018-09-27T12:43:20.726Z,23.40
2018-09-27T12:44:20.839Z,23.51
2018-09-27T12:46:52.488Z,23.56
2018-09-27T12:47:52.670Z,23.59
2018-09-27T12:48:52.870Z,23.58
2018-09-27T12:49:52.998Z,23.63
2018-09-27T12:50:53.205Z,23.61
2018-09-27T12:51:53.510Z,23.51
2018-09-27T12:52:53.569Z,23.54
2018-09-27T12:53:53.684Z,23.51
2018-09-27T12:54:53.848Z,23.55
2018-09-27T12:55:54.031Z,23.54
2018-09-27T12:56:54.233Z,23.47
2018-09-27T12:57:54.355Z,23.48
2018-09-27T12:58:54.523Z,23.41
2018-09-27T12:59:54.692Z,23.40
2018-09-27T13:00:54.965Z,23.54
2018-09-27T13:03:37.153Z,23.56
2018-09-27T13:04:37.315Z,23.65
2018-09-27T13:05:37.487Z,23.68
2018-09-27T13:06:37.658Z,23.63
2018-09-27T13:07:37.830Z,23.50
2018-09-27T13:08:38.085Z,23.46
2018-09-27T13:09:38.269Z,23.46
2018-09-27T13:10:38.328Z,23.44
2018-09-27T13:11:45.667Z,23.48
2018-09-27T13:12:38.787Z,23.46
2018-09-27T13:13:38.871Z,23.39
2018-09-27T13:16:10.721Z,23.37
2018-09-27T13:17:10.865Z,23.41
2018-09-27T13:18:11.035Z,23.40
2018-09-27T13:19:11.237Z,23.46
2018-09-27T13:20:11.427Z,23.44
2018-09-27T13:21:11.545Z,23.51
2018-09-27T13:22:11.717Z,23.51
2018-09-27T13:23:11.897Z,23.51
2018-09-27T13:24:12.068Z,23.48
2018-09-27T13:25:12.237Z,23.48
2018-09-27T13:26:12.401Z,23.46
2018-09-27T13:27:12.571Z,23.55
2018-09-27T13:28:12.742Z,23.58
2018-09-27T13:29:12.923Z,23.56
2018-09-27T13:30:13.151Z,23.65
2018-09-27T13:32:55.460Z,23.73
2018-09-27T13:33:55.621Z,23.86
2018-09-27T13:35:03.715Z,23.76
2018-09-27T13:35:55.870Z,23.74
2018-09-27T13:36:56.098Z,23.69
2018-09-27T13:37:56.255Z,23.66
2018-09-27T13:39:04.142Z,23.68
2018-09-27T13:39:56.631Z,23.73
2018-09-27T13:40:56.797Z,23.77
2018-09-27T13:41:56.963Z,23.66
2018-09-27T13:42:57.186Z,23.69
2018-09-27T13:43:57.300Z,23.76
2018-09-27T13:44:57.506Z,23.74
2018-09-27T13:45:57.648Z,23.73
2018-09-27T13:46:57.996Z,23.77
2018-09-27T13:47:58.075Z,23.81
2018-09-27T13:48:59.022Z,23.81
2018-09-27T13:51:40.477Z,23.87
2018-09-27T13:52:40.661Z,23.92
2018-09-27T13:53:40.831Z,23.98
2018-09-27T13:54:41.003Z,23.96
2018-09-27T13:55:41.163Z,23.98
2018-09-27T13:56:41.329Z,24.08
2018-09-27T13:57:48.959Z,24.06
2018-09-27T13:58:41.737Z,24.30
2018-09-27T13:59:41.796Z,24.21
2018-09-27T14:00:44.538Z,24.21
2018-09-27T14:01:49.528Z,24.11
2018-09-27T14:02:42.281Z,24.20
2018-09-27T14:03:42.353Z,24.11
2018-09-27T14:04:42.517Z,24.14
2018-09-27T14:05:42.690Z,24.11
2018-09-27T14:06:42.857Z,24.14
2018-09-27T14:07:43.019Z,24.20
2018-09-27T14:08:43.183Z,24.02
2018-09-27T14:09:43.355Z,24.16
2018-09-27T14:10:43.528Z,24.13
2018-09-27T14:11:44.561Z,24.28
2018-09-27T14:12:43.858Z,24.26
2018-09-27T14:13:44.015Z,24.36
2018-09-27T14:14:44.235Z,24.40
2018-09-27T14:15:44.361Z,24.33
2018-09-27T14:18:26.963Z,24.36
2018-09-27T14:19:27.133Z,24.38
2018-09-27T14:20:27.315Z,24.33
2018-09-27T14:21:27.466Z,24.45
2018-09-27T14:22:28.201Z,24.40
2018-09-27T14:23:27.738Z,24.36
2018-09-27T14:24:27.902Z,24.28
2018-09-27T14:25:28.066Z,24.33